Anthem Of The Seas — C6BI7 — position and weather

sailwx.info

Track history (hours):
 
Tides and Currents Weather Stations Pressure Air Temp Water Temp Dewpoint Dewpoint Depression Visibility Wind Speed Wind Dir Waves Ship Positions

Anthem Of The Seas

Last reported at 2019-May-20 07:22 UTC. Time now 2019-May-20 16:58 UTC.
Position N 39°29' W 072°40'.

Length 348 m; draft 8.8 m.

Type: Passenger vessel. MMSI: 311000274.

Date/timePositionNaut miles runAvg speedWind from/ knotsBaromVisibWave heightAir tempDewpointWater temp
2019-May-20 07:22N 39°29' W 072°40'3622.4
2019-May-20 05:45N 39°55' W 073°13'622.8
2019-May-20 05:30N 39°59' W 073°18'1122.7
2019-May-20 05:00N 40°08' W 073°28'1322.5
2019-May-20 04:24N 40°18' W 073°39'921.6
2019-May-20 04:00N 40°25' W 073°46'713.1
2019-May-20 03:30N 40°29' W 073°53'816.4
2019-May-20 03:00N 40°34' W 074°02'612.9
2019-May-20 02:30N 40°40' W 074°04'0 0.3
2019-May-20 01:59N 40°40' W 074°04'0 0.0
2019-May-20 01:29N 40°40' W 074°04'0 0.0
2019-May-20 00:59N 40°40' W 074°04'0 0.0
2019-May-20 00:29N 40°40' W 074°04'0 0.0
2019-May-19 23:59N 40°40' W 074°04'0 0.0
2019-May-19 23:29N 40°40' W 074°04'0 0.0
2019-May-19 22:59N 40°40' W 074°04'0 0.0
2019-May-19 22:29N 40°40' W 074°04'0 0.0
2019-May-19 21:56N 40°40' W 074°04'1 2.0
2019-May-19 21:31N 40°39' W 074°03'1 1.7
2019-May-19 21:01N 40°39' W 074°03'0 0.0
2019-May-19 20:30N 40°39' W 074°03'0 0.3
2019-May-19 19:58N 40°38' W 074°03'0 0.0
2019-May-19 19:28N 40°38' W 074°03'0 0.0
2019-May-19 18:58N 40°38' W 074°03'0 0.0
2019-May-19 18:28N 40°38' W 074°03'0 0.0
2019-May-19 17:55N 40°38' W 074°03'0 0.0
2019-May-19 17:28N 40°38' W 074°03'0 0.1
2019-May-19 16:19N 40°38' W 074°03'0 0.1
2019-May-19 15:25N 40°38' W 074°03'0 0.5
2019-May-19 14:55N 40°39' W 074°03'3 5.9
2019-May-19 14:28N 40°41' W 074°02'2 5.0
2019-May-19 14:00N 40°44' W 074°01'4 6.3
2019-May-19 13:26N 40°40' W 074°03'1 0.4
2019-May-19 10:54N 40°40' W 074°04'0 0.0
2019-May-19 10:06N 40°40' W 074°04'0 0.0
2019-May-19 09:36N 40°40' W 074°04'0 0.0
2019-May-19 09:24N 40°40' W 074°04'0 0.0
2019-May-19 08:55N 40°40' W 074°04'0 0.0
2019-May-19 08:30N 40°40' W 074°04'0 0.0
2019-May-19 08:00N 40°40' W 074°04'0 0.0
2019-May-19 07:28N 40°40' W 074°04'0 0.0
2019-May-19 06:57N 40°40' W 074°04'0 0.0
2019-May-19 06:28N 40°40' W 074°04'0 0.0
2019-May-19 06:00N 40°40' W 074°04'0 0.0
2019-May-19 05:28N 40°40' W 074°04'0 0.0
2019-May-19 05:01N 40°40' W 074°04'0 0.0
2019-May-19 04:30N 40°40' W 074°04'0 0.0
2019-May-19 03:58N 40°40' W 074°04'0 0.0
2019-May-19 03:18N 40°40' W 074°04'1 2.0
2019-May-19 03:00N 40°40' W 074°03'5 9.4
2019-May-19 02:30N 40°35' W 074°02'815.0
2019-May-19 01:59N 40°29' W 073°55'714.1
2019-May-19 01:31N 40°26' W 073°47'1020.0
2019-May-19 01:00N 40°16' W 073°46'1122.3
2019-May-19 00:30N 40°05' W 073°44'1122.2
2019-May-19 00:00N 39°54' W 073°43'1122.3
2019-May-18 23:30N 39°43' W 073°42'1122.3
2019-May-18 23:00N 39°32' W 073°45'1122.3
2019-May-18 22:30N 39°21' W 073°47'1122.4
2019-May-18 22:00N 39°10' W 073°49'1121.9
2019-May-18 21:29N 38°59' W 073°53'1020.8
2019-May-18 21:00N 38°50' W 073°59'1020.5
2019-May-18 20:30N 38°40' W 074°03'1020.9
2019-May-18 20:00N 38°30' W 074°03'1020.6
2019-May-18 19:30N 38°19' W 074°05'1020.5
2019-May-18 19:00N 38°09' W 074°06'1020.3
2019-May-18 18:30N 37°59' W 074°08'1020.6
2019-May-18 18:00N 37°49' W 074°11'1020.4
2019-May-18 17:30N 37°39' W 074°13'1120.7
2019-May-18 16:58N 37°28' W 074°16'  
2019-May-14 19:25N 18°30' W 066°09'3 4.9
2019-May-14 18:47N 18°28' W 066°07'0 0.0
2019-May-14 18:29N 18°28' W 066°07'0 0.0
2019-May-14 17:59N 18°28' W 066°07'0 0.0
2019-May-14 17:29N 18°28' W 066°07'0 0.0
2019-May-14 16:59N 18°28' W 066°07'0 0.0
2019-May-14 16:29N 18°28' W 066°07'0 0.0
2019-May-14 15:59N 18°28' W 066°07'0 0.0
2019-May-14 15:29N 18°28' W 066°07'0 0.0
2019-May-14 14:59N 18°28' W 066°07'0 0.0
2019-May-14 14:29N 18°28' W 066°07'0 0.0
2019-May-14 13:59N 18°28' W 066°07'0 0.0
2019-May-14 13:29N 18°28' W 066°07'0 0.0
2019-May-14 12:59N 18°28' W 066°07'0 0.0
2019-May-14 12:29N 18°28' W 066°07'0 0.0
2019-May-14 11:59N 18°28' W 066°07'0 0.0
2019-May-14 11:29N 18°28' W 066°07'0 0.0
2019-May-14 10:59N 18°28' W 066°07'0 0.4
2019-May-14 10:30N 18°28' W 066°07'3 6.8
2019-May-14 10:00N 18°31' W 066°08'714.5
2019-May-14 09:30N 18°32' W 066°00'1517.3
2019-May-14 08:39N 18°30' W 065°45'217.3
2019-May-14 08:30N 18°30' W 065°42'817.0
2019-May-14 08:01N 18°29' W 065°33'918.2
2019-May-14 07:31N 18°28' W 065°24'918.8
2019-May-14 07:01N 18°27' W 065°14'1019.3
2019-May-14 06:31N 18°20' W 065°07'918.8
2019-May-14 06:01N 18°13' W 064°60'918.7
2019-May-14 05:31N 18°12' W 064°50'918.5
2019-May-14 05:01N 18°11' W 064°40'7418.4
2019-May-14 01:00N 18°02' W 063°23'918.7
2019-May-14 00:30N 18°01' W 063°13'1014.0
2019-May-13 23:47N 18°00' W 063°03'0 0.6
2019-May-13 23:10N 18°01' W 063°03'0 0.0
2019-May-13 22:58N 18°01' W 063°03'0 0.0
2019-May-13 22:01N 18°01' W 063°03'0 0.0
2019-May-13 21:43N 18°01' W 063°03'0 0.0
2019-May-13 21:01N 18°01' W 063°03'0 0.0
2019-May-13 20:58N 18°01' W 063°03'0 0.0
2019-May-13 19:43N 18°01' W 063°03'0 0.0
2019-May-13 19:19N 18°01' W 063°03'0 0.0
2019-May-13 18:46N 18°01' W 063°03'0 0.0
2019-May-13 18:16N 18°01' W 063°03'0 0.0
2019-May-13 17:52N 18°01' W 063°03'0 0.0
2019-May-13 17:22N 18°01' W 063°03'0 0.0
2019-May-13 16:52N 18°01' W 063°03'0 0.0
2019-May-13 16:19N 18°01' W 063°03'0 0.6
2019-May-13 15:46N 18°01' W 063°03'2 6.9
2019-May-13 15:28N 18°00' W 063°05'1118.5
2019-May-13 14:51N 18°06' W 063°15'819.9
2019-May-13 14:28N 18°12' W 063°21'1119.6
2019-May-13 13:55N 18°21' W 063°26'76620.2
2019-May-12 00:00N 31°06' W 064°24'143 7.5 160 / 121022.310.8 21.017.824.0
2019-May-11 05:00N 33°18' W 065°30'   110 / 131023.210.8 20.014.9
Track history (hours):
 
Tides and Currents Weather Stations Pressure Air Temp Water Temp Dewpoint Dewpoint Depression Visibility Wind Speed Wind Dir Waves Ship Positions

Anthem Of The Seas

Last reported at 2019-May-20 07:22 UTC. Time now 2019-May-20 16:58 UTC.
Position N 39°29' W 072°40'.

Length 348 m; draft 8.8 m.

Type: Passenger vessel. MMSI: 311000274.

Date/timePositionNaut miles runAvg speedWind from/ knotsBaromVisibWave heightAir tempDewpointWater temp
2019-May-20 07:22N 39°29' W 072°40'3622.4
2019-May-20 05:45N 39°55' W 073°13'622.8
2019-May-20 05:30N 39°59' W 073°18'1122.7
2019-May-20 05:00N 40°08' W 073°28'1322.5
2019-May-20 04:24N 40°18' W 073°39'921.6
2019-May-20 04:00N 40°25' W 073°46'713.1
2019-May-20 03:30N 40°29' W 073°53'816.4
2019-May-20 03:00N 40°34' W 074°02'612.9
2019-May-20 02:30N 40°40' W 074°04'0 0.3
2019-May-20 01:59N 40°40' W 074°04'0 0.0
2019-May-20 01:29N 40°40' W 074°04'0 0.0
2019-May-20 00:59N 40°40' W 074°04'0 0.0
2019-May-20 00:29N 40°40' W 074°04'0 0.0
2019-May-19 23:59N 40°40' W 074°04'0 0.0
2019-May-19 23:29N 40°40' W 074°04'0 0.0
2019-May-19 22:59N 40°40' W 074°04'0 0.0
2019-May-19 22:29N 40°40' W 074°04'0 0.0
2019-May-19 21:56N 40°40' W 074°04'1 2.0
2019-May-19 21:31N 40°39' W 074°03'1 1.7
2019-May-19 21:01N 40°39' W 074°03'0 0.0
2019-May-19 20:30N 40°39' W 074°03'0 0.3
2019-May-19 19:58N 40°38' W 074°03'0 0.0
2019-May-19 19:28N 40°38' W 074°03'0 0.0
2019-May-19 18:58N 40°38' W 074°03'0 0.0
2019-May-19 18:28N 40°38' W 074°03'0 0.0
2019-May-19 17:55N 40°38' W 074°03'0 0.0
2019-May-19 17:28N 40°38' W 074°03'0 0.1
2019-May-19 16:19N 40°38' W 074°03'0 0.1
2019-May-19 15:25N 40°38' W 074°03'0 0.5
2019-May-19 14:55N 40°39' W 074°03'3 5.9
2019-May-19 14:28N 40°41' W 074°02'2 5.0
2019-May-19 14:00N 40°44' W 074°01'4 6.3
2019-May-19 13:26N 40°40' W 074°03'1 0.4
2019-May-19 10:54N 40°40' W 074°04'0 0.0
2019-May-19 10:06N 40°40' W 074°04'0 0.0
2019-May-19 09:36N 40°40' W 074°04'0 0.0
2019-May-19 09:24N 40°40' W 074°04'0 0.0
2019-May-19 08:55N 40°40' W 074°04'0 0.0
2019-May-19 08:30N 40°40' W 074°04'0 0.0
2019-May-19 08:00N 40°40' W 074°04'0 0.0
2019-May-19 07:28N 40°40' W 074°04'0 0.0
2019-May-19 06:57N 40°40' W 074°04'0 0.0
2019-May-19 06:28N 40°40' W 074°04'0 0.0
2019-May-19 06:00N 40°40' W 074°04'0 0.0
2019-May-19 05:28N 40°40' W 074°04'0 0.0
2019-May-19 05:01N 40°40' W 074°04'0 0.0
2019-May-19 04:30N 40°40' W 074°04'0 0.0
2019-May-19 03:58N 40°40' W 074°04'0 0.0
2019-May-19 03:18N 40°40' W 074°04'1 2.0
2019-May-19 03:00N 40°40' W 074°03'5 9.4
2019-May-19 02:30N 40°35' W 074°02'815.0
2019-May-19 01:59N 40°29' W 073°55'714.1
2019-May-19 01:31N 40°26' W 073°47'1020.0
2019-May-19 01:00N 40°16' W 073°46'1122.3
2019-May-19 00:30N 40°05' W 073°44'1122.2
2019-May-19 00:00N 39°54' W 073°43'1122.3
2019-May-18 23:30N 39°43' W 073°42'1122.3
2019-May-18 23:00N 39°32' W 073°45'1122.3
2019-May-18 22:30N 39°21' W 073°47'1122.4
2019-May-18 22:00N 39°10' W 073°49'1121.9
2019-May-18 21:29N 38°59' W 073°53'1020.8
2019-May-18 21:00N 38°50' W 073°59'1020.5
2019-May-18 20:30N 38°40' W 074°03'1020.9
2019-May-18 20:00N 38°30' W 074°03'1020.6
2019-May-18 19:30N 38°19' W 074°05'1020.5
2019-May-18 19:00N 38°09' W 074°06'1020.3
2019-May-18 18:30N 37°59' W 074°08'1020.6
2019-May-18 18:00N 37°49' W 074°11'1020.4
2019-May-18 17:30N 37°39' W 074°13'1120.7
2019-May-18 16:58N 37°28' W 074°16'  
2019-May-14 19:25N 18°30' W 066°09'3 4.9
2019-May-14 18:47N 18°28' W 066°07'0 0.0
2019-May-14 18:29N 18°28' W 066°07'0 0.0
2019-May-14 17:59N 18°28' W 066°07'0 0.0
2019-May-14 17:29N 18°28' W 066°07'0 0.0
2019-May-14 16:59N 18°28' W 066°07'0 0.0
2019-May-14 16:29N 18°28' W 066°07'0 0.0
2019-May-14 15:59N 18°28' W 066°07'0 0.0
2019-May-14 15:29N 18°28' W 066°07'0 0.0
2019-May-14 14:59N 18°28' W 066°07'0 0.0
2019-May-14 14:29N 18°28' W 066°07'0 0.0
2019-May-14 13:59N 18°28' W 066°07'0 0.0
2019-May-14 13:29N 18°28' W 066°07'0 0.0
2019-May-14 12:59N 18°28' W 066°07'0 0.0
2019-May-14 12:29N 18°28' W 066°07'0 0.0
2019-May-14 11:59N 18°28' W 066°07'0 0.0
2019-May-14 11:29N 18°28' W 066°07'0 0.0
2019-May-14 10:59N 18°28' W 066°07'0 0.4
2019-May-14 10:30N 18°28' W 066°07'3 6.8
2019-May-14 10:00N 18°31' W 066°08'714.5
2019-May-14 09:30N 18°32' W 066°00'1517.3
2019-May-14 08:39N 18°30' W 065°45'217.3
2019-May-14 08:30N 18°30' W 065°42'817.0
2019-May-14 08:01N 18°29' W 065°33'918.2
2019-May-14 07:31N 18°28' W 065°24'918.8
2019-May-14 07:01N 18°27' W 065°14'1019.3
2019-May-14 06:31N 18°20' W 065°07'918.8
2019-May-14 06:01N 18°13' W 064°60'918.7
2019-May-14 05:31N 18°12' W 064°50'918.5
2019-May-14 05:01N 18°11' W 064°40'7418.4
2019-May-14 01:00N 18°02' W 063°23'918.7
2019-May-14 00:30N 18°01' W 063°13'1014.0
2019-May-13 23:47N 18°00' W 063°03'0 0.6
2019-May-13 23:10N 18°01' W 063°03'0 0.0
2019-May-13 22:58N 18°01' W 063°03'0 0.0
2019-May-13 22:01N 18°01' W 063°03'0 0.0
2019-May-13 21:43N 18°01' W 063°03'0 0.0
2019-May-13 21:01N 18°01' W 063°03'0 0.0
2019-May-13 20:58N 18°01' W 063°03'0 0.0
2019-May-13 19:43N 18°01' W 063°03'0 0.0
2019-May-13 19:19N 18°01' W 063°03'0 0.0
2019-May-13 18:46N 18°01' W 063°03'0 0.0
2019-May-13 18:16N 18°01' W 063°03'0 0.0
2019-May-13 17:52N 18°01' W 063°03'0 0.0
2019-May-13 17:22N 18°01' W 063°03'0 0.0
2019-May-13 16:52N 18°01' W 063°03'0 0.0
2019-May-13 16:19N 18°01' W 063°03'0 0.6
2019-May-13 15:46N 18°01' W 063°03'2 6.9
2019-May-13 15:28N 18°00' W 063°05'1118.5
2019-May-13 14:51N 18°06' W 063°15'819.9
2019-May-13 14:28N 18°12' W 063°21'1119.6
2019-May-13 13:55N 18°21' W 063°26'76620.2
2019-May-12 00:00N 31°06' W 064°24'143 7.5 160 / 121022.310.8 21.017.824.0
2019-May-11 05:00N 33°18' W 065°30'   110 / 131023.210.8 20.014.9

Dump ship's entire track history